createdAt,value
2018-03-15T14:34:47.332Z,47.53
2018-03-15T14:37:50.394Z,48.32
2018-03-15T14:40:27.275Z,48.08
2018-03-15T14:43:05.271Z,47.87
2018-03-15T14:45:39.720Z,47.93
2018-03-15T14:48:19.513Z,47.43
2018-03-15T14:50:56.022Z,47.16
2018-03-15T14:53:29.874Z,46.81
2018-03-15T14:56:05.264Z,47.38
2018-03-15T14:58:40.899Z,48.06
2018-03-15T15:01:19.214Z,48.62
2018-03-15T15:04:00.617Z,48.68
2018-03-15T15:06:40.623Z,49.65
2018-03-15T15:09:18.294Z,49.97
2018-03-15T15:11:52.870Z,49.75
2018-03-15T15:14:31.941Z,50.05
2018-03-15T15:17:06.872Z,49.75
2018-03-15T15:19:45.185Z,50.28
2018-03-15T15:22:24.856Z,50.29
2018-03-15T15:25:05.256Z,50.12
2018-03-15T15:27:49.404Z,49.99
2018-03-15T15:30:30.202Z,50.27
2018-03-15T15:33:06.034Z,50.79
2018-03-15T15:35:51.039Z,50.15
2018-03-15T15:38:34.503Z,50.68
2018-03-15T15:41:08.512Z,50.46
2018-03-15T15:43:43.013Z,51.11
2018-03-15T15:46:16.637Z,50.67
2018-03-15T15:48:50.566Z,50.70
2018-03-15T15:51:27.282Z,51.15
2018-03-15T15:54:01.417Z,51.08
2018-03-15T15:56:37.978Z,51.55
2018-03-15T15:59:16.142Z,51.35
2018-03-15T16:03:55.007Z,51.30
2018-03-15T16:06:28.614Z,52.11
2018-03-15T16:09:02.242Z,51.85
2018-03-15T16:11:38.952Z,51.47
2018-03-15T16:14:12.770Z,52.17
2018-03-15T16:16:47.614Z,52.22
2018-03-15T16:19:21.296Z,52.17
2018-03-15T16:22:00.788Z,52.87
2018-03-15T16:24:35.400Z,53.58
2018-03-15T16:27:17.622Z,54.20
2018-03-15T16:29:56.952Z,54.95
2018-03-15T16:32:33.436Z,55.47
2018-03-15T16:35:09.282Z,55.25
2018-03-15T16:37:46.191Z,55.87
2018-03-15T16:40:22.581Z,56.11
2018-03-15T16:43:10.170Z,56.68
2018-03-15T16:45:45.588Z,57.55
2018-03-15T16:48:20.819Z,56.91
2018-03-15T16:50:54.808Z,56.74
2018-03-15T16:53:30.210Z,57.23
2018-03-15T16:56:04.297Z,57.51
2018-03-15T16:58:38.166Z,57.57
2018-03-15T17:01:12.413Z,58.34
2018-03-15T17:03:48.138Z,58.92
2018-03-15T17:06:23.933Z,58.73
2018-03-15T17:08:57.805Z,58.62
2018-03-15T17:11:34.928Z,57.93
2018-03-15T17:14:10.797Z,58.38
2018-03-15T17:16:45.653Z,58.50
2018-03-15T17:19:20.032Z,58.94
2018-03-15T17:21:58.420Z,59.63
2018-03-15T17:24:33.825Z,60.08
2018-03-15T17:27:07.336Z,59.41
2018-03-15T17:29:48.577Z,59.87
2018-03-15T17:32:27.103Z,59.86
2018-03-15T17:35:01.489Z,60.07
2018-03-15T17:37:35.941Z,60.16
2018-03-15T17:40:10.723Z,60.90
2018-03-15T17:42:46.837Z,61.91
2018-03-15T17:45:23.756Z,62.56
2018-03-15T17:48:00.382Z,62.88
2018-03-15T17:50:40.081Z,63.37
2018-03-15T17:53:15.231Z,63.55
2018-03-15T17:55:53.099Z,63.66
2018-03-15T17:58:36.947Z,63.73
2018-03-15T18:01:13.761Z,63.95
2018-03-15T18:03:54.158Z,64.12
2018-03-15T18:06:33.140Z,63.56
2018-03-15T18:09:18.140Z,63.09
2018-03-15T18:11:54.633Z,63.11
2018-03-15T18:14:31.047Z,63.63
2018-03-15T18:17:07.488Z,62.75
2018-03-15T18:19:43.886Z,63.44
2018-03-15T18:22:22.336Z,63.60
2018-03-15T18:24:56.874Z,63.50
2018-03-15T18:27:36.819Z,63.29
2018-03-15T18:30:16.992Z,63.57
2018-03-15T18:33:01.486Z,63.56
2018-03-15T18:35:44.452Z,64.38
2018-03-15T18:38:23.967Z,63.99
2018-03-15T18:41:01.018Z,64.29
2018-03-15T18:43:41.111Z,64.69
2018-03-15T18:46:22.868Z,63.84
2018-03-15T18:49:00.430Z,64.20
2018-03-15T18:51:40.519Z,63.81
2018-03-15T18:54:19.195Z,64.19
2018-03-15T18:56:59.491Z,63.99
2018-03-15T18:59:43.276Z,64.31
2018-03-15T19:02:20.757Z,63.63
2018-03-15T19:04:58.684Z,64.03
2018-03-15T19:07:47.263Z,64.26
2018-03-15T19:10:22.132Z,64.21
2018-03-15T19:12:59.733Z,64.21
2018-03-15T19:15:35.202Z,64.46
2018-03-15T19:18:09.393Z,64.74
2018-03-15T19:23:24.341Z,64.26
2018-03-15T19:25:58.777Z,64.25
2018-03-15T19:28:33.214Z,63.82
2018-03-15T19:31:07.605Z,64.83
2018-03-15T19:33:42.779Z,64.59
2018-03-15T19:36:24.584Z,64.45
2018-03-15T19:38:59.588Z,64.54
2018-03-15T19:41:33.656Z,64.77
2018-03-15T19:44:13.757Z,65.09
2018-03-15T19:46:48.340Z,65.17
2018-03-15T19:49:23.130Z,64.22
2018-03-15T19:51:57.237Z,64.55
2018-03-15T19:54:32.891Z,65.05
2018-03-15T19:57:24.453Z,65.17
2018-03-15T20:00:02.454Z,65.54
2018-03-15T20:02:38.177Z,65.22
2018-03-15T20:05:12.577Z,65.09
2018-03-15T20:07:48.218Z,65.25
2018-03-15T20:10:22.359Z,64.93
2018-03-15T20:12:56.309Z,64.87
2018-03-15T20:15:30.896Z,65.33
2018-03-15T20:18:04.629Z,64.96
2018-03-15T20:20:38.526Z,64.91
2018-03-15T20:23:17.121Z,65.11
2018-03-15T20:25:51.014Z,65.08
2018-03-15T20:29:00.469Z,65.21
2018-03-15T20:31:34.856Z,66.48
2018-03-15T20:34:11.466Z,67.45
2018-03-15T20:36:47.417Z,68.39
2018-03-15T20:39:25.373Z,69.47
2018-03-15T20:41:59.226Z,70.35
2018-03-15T20:44:34.701Z,71.31
2018-03-15T20:49:14.537Z,71.90
2018-03-15T20:51:50.448Z,73.14
2018-03-15T20:54:24.244Z,73.66
2018-03-15T20:56:58.699Z,74.08
2018-03-15T20:59:33.703Z,74.57
2018-03-15T21:02:07.253Z,74.76
2018-03-15T21:04:41.262Z,74.91
2018-03-15T21:07:16.568Z,75.29
2018-03-15T21:09:50.583Z,75.41
2018-03-15T21:12:26.917Z,75.44
2018-03-15T21:15:02.794Z,75.79
2018-03-15T21:17:36.401Z,75.79
2018-03-15T21:20:10.372Z,76.10
2018-03-15T21:22:45.487Z,76.55
2018-03-15T21:25:19.004Z,76.63
2018-03-15T21:27:52.470Z,76.97
2018-03-15T21:30:28.068Z,76.93
2018-03-15T21:33:03.178Z,77.09
2018-03-15T21:35:36.621Z,77.44
2018-03-15T21:38:10.752Z,77.27
2018-03-15T21:40:52.512Z,77.47
2018-03-15T21:43:26.625Z,77.61
2018-03-15T21:46:00.448Z,77.86
2018-03-15T21:48:34.767Z,77.76
2018-03-15T21:51:08.317Z,77.85
2018-03-15T21:53:42.488Z,78.12
2018-03-15T21:56:18.564Z,78.35
2018-03-15T21:58:55.646Z,78.65
2018-03-15T22:01:30.489Z,78.71
2018-03-15T22:04:04.680Z,78.78
2018-03-15T22:06:40.390Z,79.15
2018-03-15T22:09:14.511Z,79.47
2018-03-15T22:11:48.428Z,79.86
2018-03-15T22:14:24.375Z,80.04
2018-03-15T22:16:59.015Z,79.89
2018-03-15T22:19:32.763Z,79.81
2018-03-15T22:22:06.430Z,80.06
2018-03-15T22:24:47.338Z,80.15
2018-03-15T22:27:21.162Z,80.10
2018-03-15T22:29:54.513Z,80.36
2018-03-15T22:32:30.001Z,80.29
2018-03-15T22:35:04.152Z,80.21
2018-03-15T22:37:40.609Z,80.11
2018-03-15T22:40:14.326Z,80.27
2018-03-15T22:42:51.738Z,80.54
2018-03-15T22:45:25.394Z,80.22
2018-03-15T22:47:58.785Z,80.62
2018-03-15T22:50:33.084Z,80.34
2018-03-15T22:53:08.059Z,80.28
2018-03-15T22:55:41.493Z,80.51
2018-03-15T22:58:16.844Z,80.00
2018-03-15T23:00:51.265Z,79.62
2018-03-15T23:03:24.689Z,80.36
2018-03-15T23:05:58.540Z,80.13
2018-03-15T23:08:32.586Z,80.01
2018-03-15T23:11:06.578Z,79.34
2018-03-15T23:13:43.602Z,79.71
2018-03-15T23:16:17.391Z,79.56
2018-03-15T23:18:51.729Z,79.72
2018-03-15T23:21:25.510Z,79.92
2018-03-15T23:23:58.988Z,79.66
2018-03-15T23:26:34.697Z,79.68
2018-03-15T23:29:08.231Z,79.35
2018-03-15T23:31:41.627Z,79.40
2018-03-15T23:34:15.507Z,79.48
2018-03-15T23:36:49.981Z,79.94
2018-03-15T23:39:24.657Z,79.88
2018-03-15T23:41:58.580Z,79.96
2018-03-15T23:44:32.333Z,79.93
2018-03-15T23:47:06.723Z,79.83
2018-03-15T23:49:41.364Z,79.87
2018-03-15T23:52:15.031Z,79.95
2018-03-15T23:54:48.507Z,79.57
2018-03-15T23:57:26.033Z,79.83
